Weather at Fes Saïss International Airport

Public forecast

Using degrees Celsius for public forecast. Weather courtesy of forecast.io.

Current aviation weather report (METAR) for Fes Saïss International Airport

Report is more than 6 hours old.

2022/11/14 15:30 (retrieved 2 years ago)

GMFF 141530Z 29014KT CAVOK 27/M04 Q1023 NOSIG

Aviation forecast (TAF) for Fes Saïss International Airport

Forecast is more than 12 hours old.

2023/02/22 18:25 (retrieved 1 year ago)

TAF GMFF 221700Z 2218/2324 32007KT CAVOK PROB30 TEMPO 2302/2308 2000 BR BKN006